createdAt,value
2018-03-08T00:02:16.929Z,98541.78
2018-03-08T00:04:46.147Z,98545.73
2018-03-08T00:07:15.376Z,98551.80
2018-03-08T00:09:45.362Z,98547.88
2018-03-08T00:12:14.662Z,98554.05
2018-03-08T00:14:43.887Z,98561.28
2018-03-08T00:17:13.895Z,98568.63
2018-03-08T00:19:43.483Z,98566.80
2018-03-08T00:22:12.726Z,98570.22
2018-03-08T00:24:42.713Z,98572.30
2018-03-08T00:27:11.950Z,98571.51
2018-03-08T00:29:41.155Z,98583.14
2018-03-08T00:32:10.763Z,98576.95
2018-03-08T00:34:39.972Z,98584.97
2018-03-08T00:37:09.183Z,98590.83
2018-03-08T00:39:38.378Z,98595.09
2018-03-08T00:42:07.576Z,98596.78
2018-03-08T00:57:36.969Z,98605.38
2018-03-08T01:00:06.191Z,98604.09
2018-03-08T01:02:35.374Z,98606.88
2018-03-08T01:05:05.169Z,98608.97
2018-03-08T01:07:34.443Z,98613.06
2018-03-08T01:10:03.697Z,98611.71
2018-03-08T01:12:32.913Z,98612.54
2018-03-08T01:15:02.907Z,98619.71
2018-03-08T01:17:32.122Z,98619.55
2018-03-08T01:20:02.083Z,98628.34
2018-03-08T01:22:31.302Z,98634.63
2018-03-08T01:25:00.606Z,98634.96
2018-03-08T01:27:29.831Z,98621.90
2018-03-08T01:29:59.819Z,98617.91
2018-03-08T01:32:29.043Z,98628.52
2018-03-08T01:34:59.114Z,98624.20
2018-03-08T01:37:28.330Z,98631.11
2018-03-08T01:39:57.570Z,98630.63
2018-03-08T01:42:26.775Z,98632.28
2018-03-08T01:44:55.981Z,98630.38
2018-03-08T01:47:25.182Z,98636.37
2018-03-08T01:49:54.375Z,98639.97
2018-03-08T01:52:23.576Z,98633.45
2018-03-08T01:54:52.825Z,98634.80
2018-03-08T01:57:22.046Z,98634.92
2018-03-08T01:59:52.019Z,98636.72
2018-03-08T02:02:21.227Z,98641.04
2018-03-08T02:04:50.459Z,98642.14
2018-03-08T02:07:20.602Z,98639.84
2018-03-08T02:09:49.814Z,98639.20
2018-03-08T02:12:19.204Z,98652.16
2018-03-08T02:14:49.178Z,98643.32
2018-03-08T02:17:19.197Z,98644.90
2018-03-08T02:19:49.197Z,98646.19
2018-03-08T02:22:18.418Z,98646.66
2018-03-08T02:24:48.390Z,98647.76
2018-03-08T02:27:17.602Z,98651.87
2018-03-08T02:29:46.860Z,98655.67
2018-03-08T02:32:16.123Z,98658.37
2018-03-08T02:34:46.127Z,98658.37
2018-03-08T02:37:16.111Z,98661.97
2018-03-08T02:39:45.321Z,98662.75
2018-03-08T02:42:14.519Z,98663.48
2018-03-08T02:44:43.780Z,98668.52
2018-03-08T02:47:13.258Z,98674.95
2018-03-08T02:49:43.241Z,98674.66
2018-03-08T02:52:12.456Z,98674.89
2018-03-08T02:54:41.654Z,98680.16
2018-03-08T02:57:10.859Z,98675.82
2018-03-08T02:59:40.819Z,98672.81
2018-03-08T03:02:10.452Z,98680.61
2018-03-08T03:04:39.885Z,98683.13
2018-03-08T03:07:09.859Z,98694.03
2018-03-08T03:09:39.060Z,98693.35
2018-03-08T03:12:08.286Z,98694.28
2018-03-08T03:14:38.275Z,98689.92
2018-03-08T03:17:08.256Z,98691.27
2018-03-08T03:19:37.446Z,98693.41
2018-03-08T03:22:06.654Z,98691.16
2018-03-08T03:24:35.881Z,98688.86
2018-03-08T03:27:05.077Z,98686.51
2018-03-08T03:29:34.291Z,98696.50
2018-03-08T03:32:03.507Z,98688.64
2018-03-08T03:34:33.488Z,98691.66
2018-03-08T03:37:03.455Z,98694.52
2018-03-08T03:39:32.764Z,98696.77
2018-03-08T03:42:02.105Z,98702.22
2018-03-08T03:44:31.326Z,98702.20
2018-03-08T03:47:00.515Z,98701.31
2018-03-08T03:49:30.507Z,98702.84
2018-03-08T03:51:59.717Z,98703.00
2018-03-08T03:54:29.009Z,98709.02
2018-03-08T03:56:58.245Z,98710.36
2018-03-08T03:59:27.447Z,98705.98
2018-03-08T04:01:57.403Z,98714.52
2018-03-08T04:04:26.620Z,98714.05
2018-03-08T04:06:56.207Z,98711.98
2018-03-08T04:09:25.426Z,98716.14
2018-03-08T04:11:54.671Z,98718.66
2018-03-08T04:14:25.022Z,98718.38
2018-03-08T04:16:54.304Z,98715.14
2018-03-08T04:19:24.084Z,98716.83
2018-03-08T04:21:54.083Z,98715.50
2018-03-08T04:24:23.299Z,98718.57
2018-03-08T04:26:53.292Z,98721.39
2018-03-08T04:29:22.940Z,98719.27
2018-03-08T04:31:52.966Z,98731.84
2018-03-08T04:34:22.254Z,98729.02
2018-03-08T04:36:52.221Z,98730.28
2018-03-08T04:39:21.469Z,98731.92
2018-03-08T04:41:50.975Z,98732.70
2018-03-08T04:44:20.173Z,98725.11
2018-03-08T04:46:50.162Z,98734.45
2018-03-08T04:49:19.381Z,98734.45
2018-03-08T04:51:49.350Z,98729.77
2018-03-08T04:54:18.833Z,98729.55
2018-03-08T04:56:48.949Z,98738.88
2018-03-08T04:59:18.143Z,98739.21
2018-03-08T05:01:47.350Z,98744.93
2018-03-08T05:04:16.583Z,98739.15
2018-03-08T05:06:45.813Z,98749.70
2018-03-08T05:09:15.128Z,98748.74
2018-03-08T05:11:45.059Z,98749.14
2018-03-08T05:14:14.289Z,98740.66
2018-03-08T05:16:43.488Z,98737.91
2018-03-08T05:19:12.721Z,98740.31
2018-03-08T05:21:42.700Z,98747.88
2018-03-08T05:24:11.905Z,98750.50
2018-03-08T05:26:41.309Z,98750.36
2018-03-08T05:29:10.558Z,98745.01
2018-03-08T05:31:39.776Z,98746.59
2018-03-08T05:34:09.770Z,98753.88
2018-03-08T05:36:38.973Z,98752.73
2018-03-08T05:39:08.168Z,98759.41
2018-03-08T05:41:37.362Z,98757.83
2018-03-08T05:44:07.003Z,98757.31
2018-03-08T05:46:36.222Z,98762.07
2018-03-08T05:49:05.489Z,98761.67
2018-03-08T05:51:34.682Z,98766.00
2018-03-08T05:54:04.766Z,98768.36
2018-03-08T05:56:33.990Z,98770.91
2018-03-08T05:59:03.216Z,98769.73
2018-03-08T06:01:32.419Z,98778.26
2018-03-08T06:04:01.630Z,98777.95
2018-03-08T06:06:30.942Z,98787.60
2018-03-08T06:09:00.156Z,98783.10
2018-03-08T06:11:29.372Z,98781.13
2018-03-08T06:13:58.588Z,98779.61
2018-03-08T06:16:27.998Z,98780.33
2018-03-08T06:18:57.521Z,98782.00
2018-03-08T06:21:27.484Z,98775.77
2018-03-08T06:23:56.815Z,98781.85
2018-03-08T06:26:26.052Z,98780.44
2018-03-08T06:28:56.003Z,98782.39
2018-03-08T06:31:25.234Z,98781.77
2018-03-08T06:33:54.546Z,98789.45
2018-03-08T06:36:24.582Z,98798.61
2018-03-08T06:38:54.591Z,98800.13
2018-03-08T06:41:24.579Z,98807.63
2018-03-08T06:43:53.855Z,98798.53
2018-03-08T06:46:23.053Z,98806.77
2018-03-08T06:48:52.246Z,98793.47
2018-03-08T06:51:21.397Z,98808.27
2018-03-08T06:53:51.394Z,98808.34
2018-03-08T06:56:20.752Z,98804.00
2018-03-08T06:58:49.959Z,98806.12
2018-03-08T07:01:19.167Z,98803.03
2018-03-08T07:03:48.356Z,98815.48
2018-03-08T07:06:17.595Z,98811.82
2018-03-08T07:08:46.987Z,98812.52
2018-03-08T07:11:17.762Z,98810.69
2018-03-08T07:13:47.002Z,98812.61
2018-03-08T07:16:16.214Z,98812.69
2018-03-08T07:18:45.555Z,98814.17
2018-03-08T07:21:14.759Z,98812.92
2018-03-08T07:23:43.957Z,98802.92
2018-03-08T07:26:13.293Z,98810.38
2018-03-08T07:28:42.571Z,98810.77
2018-03-08T07:31:11.785Z,98804.34
2018-03-08T07:33:41.392Z,98803.30
2018-03-08T07:36:10.596Z,98805.14
2018-03-08T07:38:39.824Z,98803.93
2018-03-08T07:41:09.037Z,98795.52
2018-03-08T07:43:39.024Z,98805.64
2018-03-08T07:46:08.229Z,98807.64
2018-03-08T07:48:38.000Z,98813.97
2018-03-08T07:51:07.245Z,98807.13
2018-03-08T07:53:36.470Z,98805.78
2018-03-08T07:56:05.809Z,98812.17
2018-03-08T07:58:35.026Z,98803.03
2018-03-08T08:01:04.270Z,98805.61
2018-03-08T08:03:33.679Z,98795.84
2018-03-08T08:06:20.576Z,98800.09
2018-03-08T08:09:07.594Z,98794.65
2018-03-08T08:11:36.811Z,98799.04
2018-03-08T08:14:06.114Z,98790.36
2018-03-08T08:16:35.440Z,98797.31
2018-03-08T08:19:04.646Z,98794.55
2018-03-08T08:21:33.971Z,98791.55
2018-03-08T08:24:03.977Z,98801.88
2018-03-08T08:26:34.671Z,98789.10
2018-03-08T08:29:04.212Z,98795.18
2018-03-08T08:31:34.193Z,98792.20
2018-03-08T08:34:03.436Z,98792.00
2018-03-08T08:36:33.423Z,98784.47
2018-03-08T08:39:02.639Z,98781.70
2018-03-08T08:41:32.052Z,98783.23
2018-03-08T08:44:02.031Z,98787.98
2018-03-08T08:46:31.304Z,98786.20
2018-03-08T08:49:00.589Z,98793.29
2018-03-08T08:51:29.810Z,98786.84
2018-03-08T08:53:59.070Z,98784.52
2018-03-08T08:56:29.116Z,98783.44
2018-03-08T08:58:58.541Z,98775.08
2018-03-08T09:01:27.776Z,98766.67
2018-03-08T09:03:57.042Z,98770.76
2018-03-08T09:06:27.124Z,98754.69
2018-03-08T09:08:56.770Z,98759.00
2018-03-08T09:11:26.793Z,98766.91
2018-03-08T09:13:56.777Z,98758.61
2018-03-08T09:16:26.026Z,98755.55
2018-03-08T09:18:55.252Z,98761.58
2018-03-08T09:21:25.210Z,98747.99
2018-03-08T09:23:55.270Z,98755.12
2018-03-08T09:26:24.679Z,98747.92
2018-03-08T09:28:53.909Z,98739.52
2018-03-08T09:31:23.131Z,98734.73
2018-03-08T09:33:52.393Z,98740.44
2018-03-08T09:36:21.574Z,98730.95
2018-03-08T09:38:50.832Z,98737.87
2018-03-08T09:41:20.809Z,98734.27
2018-03-08T09:43:50.136Z,98731.31
2018-03-08T09:46:19.339Z,98731.25
2018-03-08T09:48:48.690Z,98728.98
2018-03-08T09:51:18.699Z,98719.59
2018-03-08T09:53:47.922Z,98732.17
2018-03-08T09:56:17.630Z,98723.88
2018-03-08T09:58:46.840Z,98727.08
2018-03-08T10:01:16.234Z,98726.59
2018-03-08T10:03:45.798Z,98719.94
2018-03-08T10:06:15.051Z,98724.09
2018-03-08T10:08:44.343Z,98730.72
2018-03-08T10:11:13.534Z,98726.33
2018-03-08T10:13:42.840Z,98713.48
2018-03-08T10:16:12.043Z,98719.34
2018-03-08T10:18:41.268Z,98711.36
2018-03-08T10:21:11.255Z,98709.75
2018-03-08T10:23:40.454Z,98705.72
2018-03-08T10:26:09.722Z,98708.37
2018-03-08T10:28:38.860Z,98698.20
2018-03-08T10:31:08.127Z,98699.97
2018-03-08T10:33:38.067Z,98696.22
2018-03-08T10:36:07.408Z,98674.66
2018-03-08T10:38:37.388Z,98683.39
2018-03-08T10:41:06.610Z,98682.92
2018-03-08T10:43:35.808Z,98682.66
2018-03-08T10:46:05.076Z,98678.41
2018-03-08T10:48:34.286Z,98673.44
2018-03-08T10:51:04.387Z,98673.92
2018-03-08T10:53:34.422Z,98678.00
2018-03-08T10:56:03.645Z,98682.52
2018-03-08T10:58:33.651Z,98693.77
2018-03-08T11:01:03.659Z,98693.22
2018-03-08T11:03:48.561Z,98696.95
2018-03-08T11:06:20.592Z,98683.55
2018-03-08T11:08:49.819Z,98690.14
2018-03-08T11:11:19.086Z,98693.73
2018-03-08T11:13:49.839Z,98689.17
2018-03-08T11:16:19.118Z,98691.66
2018-03-08T11:18:48.372Z,98685.29
2018-03-08T11:21:18.294Z,98684.63
2018-03-08T11:23:47.539Z,98677.23
2018-03-08T11:26:16.752Z,98675.73
2018-03-08T11:28:46.726Z,98673.38
2018-03-08T11:31:15.959Z,98678.35
2018-03-08T11:33:45.949Z,98663.83
2018-03-08T11:36:15.252Z,98662.13
2018-03-08T11:38:44.502Z,98652.20
2018-03-08T11:41:13.686Z,98637.84
2018-03-08T11:43:42.971Z,98632.10
2018-03-08T11:46:12.943Z,98641.66
2018-03-08T11:48:42.213Z,98629.36
2018-03-08T11:51:11.449Z,98626.55
2018-03-08T11:53:40.645Z,98623.61
2018-03-08T11:56:09.867Z,98629.47
2018-03-08T11:58:39.122Z,98620.37
2018-03-08T12:01:08.312Z,98624.20
2018-03-08T12:03:37.550Z,98624.14
2018-03-08T12:06:06.946Z,98627.68
2018-03-08T12:08:36.150Z,98613.33
2018-03-08T12:11:05.868Z,98605.12
2018-03-08T12:13:35.026Z,98600.27
2018-03-08T12:16:04.247Z,98597.63
2018-03-08T12:18:33.642Z,98598.27
2018-03-08T12:21:02.866Z,98595.16
2018-03-08T12:23:32.045Z,98599.38
2018-03-08T12:26:01.290Z,98594.61
2018-03-08T12:28:31.258Z,98596.94
2018-03-08T12:31:00.471Z,98583.88
2018-03-08T12:33:30.476Z,98571.62
2018-03-08T12:36:00.481Z,98567.64
2018-03-08T12:38:29.680Z,98562.80
2018-03-08T12:40:59.148Z,98554.77
2018-03-08T12:43:28.350Z,98543.05
2018-03-08T12:45:57.554Z,98553.52
2018-03-08T12:48:26.714Z,98555.81
2018-03-08T12:50:55.912Z,98551.79
2018-03-08T12:53:25.163Z,98560.55
2018-03-08T12:55:54.367Z,98546.16
2018-03-08T12:58:23.606Z,98546.64
2018-03-08T13:00:53.561Z,98549.36
2018-03-08T13:03:22.760Z,98553.51
2018-03-08T13:05:53.019Z,98558.85
2018-03-08T13:08:23.043Z,98550.23
2018-03-08T13:10:53.018Z,98548.44
2018-03-08T13:13:22.312Z,98533.30
2018-03-08T13:15:51.528Z,98533.12
2018-03-08T13:18:20.779Z,98537.52
2018-03-08T13:20:50.071Z,98526.73
2018-03-08T13:23:19.274Z,98527.42
2018-03-08T13:25:48.512Z,98531.43
2018-03-08T13:28:17.718Z,98529.98
2018-03-08T13:30:46.936Z,98527.72
2018-03-08T13:33:16.919Z,98530.36
2018-03-08T13:35:46.151Z,98516.94
2018-03-08T13:38:16.190Z,98527.01
2018-03-08T13:40:45.365Z,98510.42
2018-03-08T13:43:15.573Z,98521.16
2018-03-08T13:45:44.929Z,98512.69
2018-03-08T13:48:14.869Z,98506.59
2018-03-08T13:50:44.066Z,98510.73
2018-03-08T13:53:13.448Z,98505.06
2018-03-08T13:55:42.665Z,98502.60
2018-03-08T13:58:11.873Z,98504.72
2018-03-08T14:00:41.244Z,98508.11
2018-03-08T14:03:10.481Z,98510.39
2018-03-08T14:05:39.822Z,98510.39
2018-03-08T14:08:09.541Z,98506.59
2018-03-08T14:10:38.769Z,98494.42
2018-03-08T14:13:07.983Z,98493.96
2018-03-08T14:15:37.202Z,98498.73
2018-03-08T14:18:07.198Z,98493.68
2018-03-08T14:20:36.394Z,98488.48
2018-03-08T14:23:05.619Z,98489.27
2018-03-08T14:25:35.732Z,98485.07
2018-03-08T14:28:05.963Z,98478.88
2018-03-08T14:30:35.149Z,98478.48
2018-03-08T14:33:05.130Z,98479.63
2018-03-08T14:35:34.401Z,98475.42
2018-03-08T14:38:03.667Z,98474.92
2018-03-08T14:40:33.727Z,98484.11
2018-03-08T14:43:02.945Z,98483.86
2018-03-08T14:45:32.310Z,98481.53
2018-03-08T14:48:01.545Z,98490.85
2018-03-08T14:50:30.743Z,98491.74
2018-03-08T14:53:00.023Z,98492.78
2018-03-08T14:55:29.230Z,98498.16
2018-03-08T14:57:59.191Z,98499.83
2018-03-08T15:00:28.420Z,98490.98
2018-03-08T15:02:57.782Z,98491.63
2018-03-08T15:05:27.738Z,98501.31
2018-03-08T15:07:56.972Z,98491.00
2018-03-08T15:10:26.164Z,98492.94
2018-03-08T15:12:55.823Z,98487.73
2018-03-08T15:15:25.038Z,98493.93
2018-03-08T15:17:54.263Z,98496.20
2018-03-08T15:20:23.477Z,98476.50
2018-03-08T15:22:53.756Z,98477.52
2018-03-08T15:25:22.975Z,98480.67
2018-03-08T15:27:52.988Z,98466.94
2018-03-08T15:30:22.244Z,98455.60
2018-03-08T15:32:52.198Z,98444.48
2018-03-08T15:35:21.420Z,98440.27
2018-03-08T15:37:51.466Z,98445.11
2018-03-08T15:40:21.473Z,98428.27
2018-03-08T15:42:51.471Z,98411.10
2018-03-08T15:45:21.200Z,98418.35
2018-03-08T15:47:51.171Z,98423.97
2018-03-08T15:50:20.419Z,98429.29
2018-03-08T15:52:50.615Z,98444.93
2018-03-08T15:55:20.155Z,98447.11
2018-03-08T15:57:49.991Z,98446.85
2018-03-08T16:00:19.217Z,98451.80
2018-03-08T16:02:49.810Z,98442.05
2018-03-08T16:05:19.784Z,98445.72
2018-03-08T16:21:40.286Z,98452.56
2018-03-08T16:24:10.331Z,98459.41
2018-03-08T16:26:39.552Z,98460.87
2018-03-08T16:29:08.820Z,98468.72
2018-03-08T16:31:38.136Z,98475.16
2018-03-08T16:34:07.515Z,98469.41
2018-03-08T16:36:36.706Z,98469.97
2018-03-08T16:39:05.978Z,98478.64
2018-03-08T16:41:35.939Z,98472.23
2018-03-08T16:44:05.206Z,98468.19
2018-03-08T16:46:34.408Z,98476.34
2018-03-08T16:49:03.901Z,98469.08
2018-03-08T16:51:34.095Z,98469.67
2018-03-08T16:54:03.283Z,98487.92
2018-03-08T16:56:32.506Z,98477.53
2018-03-08T16:59:02.522Z,98494.34
2018-03-08T17:01:31.763Z,98489.34
2018-03-08T17:04:01.041Z,98461.80
2018-03-08T17:06:31.040Z,98480.97
2018-03-08T17:09:01.019Z,98472.75
2018-03-08T17:11:31.038Z,98486.72
2018-03-08T17:14:01.070Z,98484.06
2018-03-08T17:16:30.334Z,98481.42
2018-03-08T17:18:59.558Z,98477.15
2018-03-08T17:21:28.812Z,98481.55
2018-03-08T17:23:58.005Z,98470.75
2018-03-08T17:26:27.212Z,98501.88
2018-03-08T17:28:56.478Z,98497.75
2018-03-08T17:31:25.738Z,98518.16
2018-03-08T17:33:54.966Z,98513.63
2018-03-08T17:36:24.209Z,98516.20
2018-03-08T17:38:53.714Z,98516.83
2018-03-08T17:41:22.969Z,98513.83
2018-03-08T17:43:52.221Z,98517.70
2018-03-08T17:46:21.522Z,98535.09
2018-03-08T17:48:50.753Z,98533.83
2018-03-08T17:51:19.970Z,98539.69
2018-03-08T17:53:50.794Z,98541.41
2018-03-08T17:56:20.040Z,98545.72
2018-03-08T17:58:49.252Z,98543.25
2018-03-08T18:01:18.447Z,98535.03
2018-03-08T18:03:47.803Z,98550.08
2018-03-08T18:06:17.281Z,98549.64
2018-03-08T18:08:47.216Z,98549.84
2018-03-08T18:11:17.179Z,98559.34
2018-03-08T18:13:46.420Z,98566.64
2018-03-08T18:16:15.636Z,98565.55
2018-03-08T18:18:45.610Z,98557.36
2018-03-08T18:21:14.830Z,98563.45
2018-03-08T18:23:44.080Z,98567.89
2018-03-08T18:26:13.320Z,98558.37
2018-03-08T18:28:42.527Z,98572.72
2018-03-08T18:31:12.576Z,98566.80
2018-03-08T18:33:42.551Z,98569.83
2018-03-08T18:36:11.780Z,98564.47
2018-03-08T18:38:41.987Z,98562.50
2018-03-08T18:41:12.036Z,98570.36
2018-03-08T18:43:42.082Z,98577.32
2018-03-08T18:46:11.359Z,98582.99
2018-03-08T18:48:40.579Z,98580.86
2018-03-08T18:51:09.792Z,98583.67
2018-03-08T18:53:39.115Z,98590.17
2018-03-08T18:56:09.100Z,98618.53
2018-03-08T18:58:38.321Z,98623.34
2018-03-08T19:01:07.530Z,98646.25
2018-03-08T19:03:37.540Z,98656.80
2018-03-08T19:06:07.520Z,98669.55
2018-03-08T19:08:36.741Z,98677.97
2018-03-08T19:11:05.944Z,98674.14
2018-03-08T19:13:36.739Z,98682.06
2018-03-08T19:16:06.290Z,98673.77
2018-03-08T19:18:36.359Z,98687.33
2018-03-08T19:21:05.548Z,98671.23
2018-03-08T19:23:34.735Z,98668.25
2018-03-08T19:26:04.026Z,98674.64
2018-03-08T19:28:33.274Z,98712.47
2018-03-08T19:31:02.498Z,98676.60
2018-03-08T19:33:31.819Z,98679.09
2018-03-08T19:36:01.082Z,98690.32
2018-03-08T19:38:30.346Z,98706.70
2018-03-08T19:40:59.669Z,98696.33
2018-03-08T19:43:28.873Z,98663.35
2018-03-08T19:45:58.138Z,98687.11
2018-03-08T19:48:27.316Z,98699.55
2018-03-08T19:50:56.562Z,98707.84
2018-03-08T19:53:26.088Z,98711.16
2018-03-08T19:55:56.070Z,98711.78
2018-03-08T19:58:25.399Z,98719.14
2018-03-08T20:00:55.428Z,98724.12
2018-03-08T20:03:25.410Z,98731.44
2018-03-08T20:05:54.647Z,98739.56
2018-03-08T20:08:24.644Z,98738.31
2018-03-08T20:10:53.855Z,98737.70
2018-03-08T20:13:23.854Z,98752.58
2018-03-08T20:15:53.079Z,98750.28
2018-03-08T20:18:22.358Z,98752.18
2018-03-08T20:20:51.683Z,98754.31
2018-03-08T20:23:20.913Z,98756.70
2018-03-08T20:25:50.138Z,98754.64
2018-03-08T20:28:19.367Z,98764.45
2018-03-08T20:30:48.630Z,98764.45
2018-03-08T20:33:17.803Z,98762.69
2018-03-08T20:35:47.878Z,98775.13
2018-03-08T20:38:17.830Z,98770.67
2018-03-08T20:40:47.101Z,98768.32
2018-03-08T20:43:16.330Z,98772.42
2018-03-08T20:45:45.552Z,98771.64
2018-03-08T20:48:14.786Z,98767.75
2018-03-08T20:50:44.121Z,98773.61
2018-03-08T20:53:13.304Z,98780.97
2018-03-08T20:55:42.526Z,98780.80
2018-03-08T20:58:12.281Z,98790.08
2018-03-08T21:00:42.280Z,98789.92
2018-03-08T21:03:11.547Z,98788.25
2018-03-08T21:05:40.751Z,98802.09
2018-03-08T21:08:09.987Z,98799.47
2018-03-08T21:10:40.055Z,98796.70
2018-03-08T21:13:09.880Z,98798.83
2018-03-08T21:15:39.079Z,98806.28
2018-03-08T21:18:08.368Z,98815.68
2018-03-08T21:20:37.947Z,98815.91
2018-03-08T21:23:07.151Z,98821.16
2018-03-08T21:25:36.362Z,98823.12
2018-03-08T21:28:05.600Z,98826.38
2018-03-08T21:30:34.800Z,98831.52
2018-03-08T21:33:04.002Z,98827.95
2018-03-08T21:35:34.026Z,98835.16
2018-03-08T21:38:04.071Z,98844.91
2018-03-08T21:40:33.478Z,98832.87
2018-03-08T21:43:02.680Z,98841.50
2018-03-08T21:45:32.409Z,98845.86
2018-03-08T21:48:01.616Z,98847.18
2018-03-08T21:50:30.867Z,98843.08
2018-03-08T21:53:00.660Z,98846.81
2018-03-08T21:55:30.637Z,98859.05
2018-03-08T21:57:59.832Z,98862.61
2018-03-08T22:00:29.045Z,98867.86
2018-03-08T22:02:58.352Z,98873.23
2018-03-08T22:05:27.687Z,98876.16
2018-03-08T22:07:57.014Z,98868.55
2018-03-08T22:10:27.467Z,98875.59
2018-03-08T22:12:57.489Z,98870.22
2018-03-08T22:15:26.693Z,98874.72
2018-03-08T22:17:56.695Z,98877.67
2018-03-08T22:20:25.959Z,98879.17
2018-03-08T22:22:55.150Z,98878.52
2018-03-08T22:25:24.457Z,98887.94
2018-03-08T22:27:53.659Z,98887.55
2018-03-08T22:30:22.903Z,98892.70
2018-03-08T22:32:52.117Z,98898.70
2018-03-08T22:35:22.125Z,98900.16
2018-03-08T22:37:51.810Z,98892.20
2018-03-08T22:40:22.851Z,98905.14
2018-03-08T22:42:52.952Z,98906.23
2018-03-08T22:45:22.157Z,98903.70
2018-03-08T22:47:51.369Z,98904.88
2018-03-08T22:50:20.571Z,98909.57
2018-03-08T22:52:49.791Z,98917.14
2018-03-08T22:55:19.813Z,98912.16
2018-03-08T22:57:49.298Z,98915.33
2018-03-08T23:00:18.508Z,98924.34
2018-03-08T23:02:48.488Z,98926.80
2018-03-08T23:05:17.740Z,98925.14
2018-03-08T23:07:47.702Z,98925.23
2018-03-08T23:10:16.897Z,98931.56
2018-03-08T23:12:46.095Z,98928.88
2018-03-08T23:15:15.456Z,98929.19
2018-03-08T23:17:44.667Z,98936.91
2018-03-08T23:20:14.051Z,98943.17
2018-03-08T23:22:44.053Z,98936.20
2018-03-08T23:25:14.019Z,98943.94
2018-03-08T23:27:43.222Z,98945.00
2018-03-08T23:30:12.619Z,98948.41
2018-03-08T23:32:41.872Z,98946.90
2018-03-08T23:35:11.099Z,98939.99
2018-03-08T23:37:40.303Z,98946.41
2018-03-08T23:40:09.499Z,98957.77
2018-03-08T23:42:38.724Z,98958.25
2018-03-08T23:45:07.945Z,98962.05
2018-03-08T23:47:37.914Z,98967.51
2018-03-08T23:50:07.152Z,98969.89
2018-03-08T23:52:37.146Z,98970.05
2018-03-08T23:55:06.538Z,98972.55
2018-03-08T23:57:35.724Z,98976.67
